首页
METAR-TAF:

METAR-TAF

机场 :

海參崴國際機場

海參崴, 俄罗斯

纬度: 43-07N, 经度: 131-56E, 海拔: 184米

当前天气观测

该预报发布于30分钟前的15:00 UTC
风速2节,风向多变
温度 15°C
湿度 94%
气压 1017 hPa
能见度10公里或以上

METAR: UHWW 161500Z VRB01MPS 9999 NSC 15/14 Q1017 R25L/0///70 NOSIG RMK QFE762

时间: 01:30 (15:30 UTC)

预报

该预报发布于1小时和30分钟前的14:00 UTC
预报有效从16日的 15点(UTC)到 17日的 15点(UTC)
风速6节,风向
能見度: 3100
散云层高于1100英尺
轻雾
从 16日的 2300点(UTC)
风速6节,风向西转西北
能见度10公里或以上
散云层高于3000英尺
成为
从 17日的 08点(UTC)到 17日的 11点(UTC)
能見度: 3500
多云层高于1100英尺
轻雾

TAF: UHWW 161400Z 1615/1715 36003MPS 3100 BR SCT011 FM162300 30003MPS 9999 SCT030 BECMG 1708/1711 3500 BR BKN011

超过4000个机场的气象观测和天气预报(METAR&TAF报告)。

可查询的气象台以黄色和红色小点在地图上表示。

将鼠标移到小点上方,可查看气象台名称。

然后点击查看天气观测和预报。

如需切换地图:点击带黑十字的绿色按钮放大地图;点击带横线的绿色按钮缩小地图;或者点击绿色箭头查看邻近地区的地图。


METAR-TAF: